KDTO

Denton Enterprise Airport

Denton, Texas, USA
METAR KDTO 170953Z AUTO 30006KT 10SM CLR M14/M17 A3076 RMK AO2 SLP424 T11391172
Observed Flight Rules
Jan-17 @ 09:53 UTC (an hour ago) Visual Flight Rules
Wind Visibility Clouds
300° at 6 knots 10 miles
  • Clear skies
Temperatures Readings
Current -14°C / 7°F
Dewpoint -17°C / 1°F
Humidity 78%
Altimeter 30.76" Hg
Pressure 1042.4 hPa
Elevation 196
METAR KDTO 170953Z AUTO 30006KT 10SM CLR M14/M17 A3076 RMK AO2 SLP424 T11391172
Observed Flight Rules
Jan-17 @ 09:53 UTC
(an hour ago)
VFR
Wind Visibility
300° at 6 knots 10 miles
Clouds
  • Clear skies
Temperature Dewpoint
-14°C / 7°F -17°C / 1°F
Humidity Altimeter Pressure
78% 30.76" Hg 1042.4 hPa